sensor_id;sensor_type;location;lat;lon;timestamp;P1;durP1;ratioP1;P2;durP2;ratioP2
12535;SDS011;6334;48.696;2.114;2023-12-20T00:00:07;3.83;;;3.50;;
12535;SDS011;6334;48.696;2.114;2023-12-20T00:02:36;4.13;;;3.60;;
12535;SDS011;6334;48.696;2.114;2023-12-20T00:05:07;4.10;;;3.50;;
12535;SDS011;6334;48.696;2.114;2023-12-20T00:07:38;3.77;;;3.30;;
12535;SDS011;6334;48.696;2.114;2023-12-20T00:10:08;4.80;;;3.27;;
12535;SDS011;6334;48.696;2.114;2023-12-20T00:12:38;3.63;;;2.90;;
12535;SDS011;6334;48.696;2.114;2023-12-20T00:15:08;5.23;;;3.30;;
12535;SDS011;6334;48.696;2.114;2023-12-20T00:17:39;4.13;;;3.03;;
12535;SDS011;6334;48.696;2.114;2023-12-20T00:20:09;3.77;;;3.13;;
12535;SDS011;6334;48.696;2.114;2023-12-20T00:22:39;4.77;;;2.77;;
12535;SDS011;6334;48.696;2.114;2023-12-20T00:25:09;5.83;;;2.90;;
12535;SDS011;6334;48.696;2.114;2023-12-20T00:27:40;3.33;;;2.47;;
12535;SDS011;6334;48.696;2.114;2023-12-20T00:30:10;3.60;;;2.63;;
12535;SDS011;6334;48.696;2.114;2023-12-20T00:32:40;2.60;;;1.80;;
12535;SDS011;6334;48.696;2.114;2023-12-20T00:35:11;2.10;;;2.00;;
12535;SDS011;6334;48.696;2.114;2023-12-20T00:37:42;6.57;;;2.37;;
12535;SDS011;6334;48.696;2.114;2023-12-20T00:40:11;2.90;;;1.87;;
12535;SDS011;6334;48.696;2.114;2023-12-20T00:42:41;5.30;;;2.03;;
12535;SDS011;6334;48.696;2.114;2023-12-20T00:45:11;2.43;;;1.20;;
12535;SDS011;6334;48.696;2.114;2023-12-20T00:47:41;5.37;;;1.77;;
12535;SDS011;6334;48.696;2.114;2023-12-20T00:50:12;4.33;;;1.40;;
12535;SDS011;6334;48.696;2.114;2023-12-20T00:52:43;3.70;;;1.37;;
12535;SDS011;6334;48.696;2.114;2023-12-20T00:55:15;3.27;;;1.60;;
12535;SDS011;6334;48.696;2.114;2023-12-20T00:57:46;4.17;;;1.50;;
12535;SDS011;6334;48.696;2.114;2023-12-20T01:00:16;5.57;;;1.50;;
12535;SDS011;6334;48.696;2.114;2023-12-20T01:02:46;6.57;;;2.13;;
12535;SDS011;6334;48.696;2.114;2023-12-20T01:05:20;7.27;;;2.10;;
12535;SDS011;6334;48.696;2.114;2023-12-20T01:07:47;6.10;;;2.37;;
12535;SDS011;6334;48.696;2.114;2023-12-20T01:10:17;3.60;;;1.67;;
12535;SDS011;6334;48.696;2.114;2023-12-20T01:12:48;5.83;;;1.67;;
12535;SDS011;6334;48.696;2.114;2023-12-20T01:15:19;6.43;;;1.87;;
12535;SDS011;6334;48.696;2.114;2023-12-20T01:17:49;4.37;;;1.70;;
12535;SDS011;6334;48.696;2.114;2023-12-20T01:20:20;8.10;;;2.17;;
12535;SDS011;6334;48.696;2.114;2023-12-20T01:22:49;3.67;;;1.77;;
12535;SDS011;6334;48.696;2.114;2023-12-20T01:25:20;4.83;;;2.20;;
12535;SDS011;6334;48.696;2.114;2023-12-20T01:27:50;7.10;;;1.90;;
12535;SDS011;6334;48.696;2.114;2023-12-20T01:30:21;3.23;;;1.43;;
12535;SDS011;6334;48.696;2.114;2023-12-20T01:32:51;5.37;;;2.60;;
12535;SDS011;6334;48.696;2.114;2023-12-20T01:35:22;4.07;;;1.57;;
12535;SDS011;6334;48.696;2.114;2023-12-20T01:37:52;8.43;;;2.17;;
12535;SDS011;6334;48.696;2.114;2023-12-20T01:40:23;5.73;;;1.80;;
12535;SDS011;6334;48.696;2.114;2023-12-20T01:43:08;5.30;;;2.33;;
12535;SDS011;6334;48.696;2.114;2023-12-20T01:45:33;3.80;;;1.53;;
12535;SDS011;6334;48.696;2.114;2023-12-20T01:48:03;7.27;;;1.83;;
12535;SDS011;6334;48.696;2.114;2023-12-20T01:50:36;6.17;;;1.87;;
12535;SDS011;6334;48.696;2.114;2023-12-20T01:53:05;6.67;;;2.17;;
12535;SDS011;6334;48.696;2.114;2023-12-20T01:55:36;4.70;;;1.67;;
12535;SDS011;6334;48.696;2.114;2023-12-20T01:58:06;6.77;;;1.97;;
12535;SDS011;6334;48.696;2.114;2023-12-20T02:00:37;7.23;;;2.17;;
12535;SDS011;6334;48.696;2.114;2023-12-20T02:03:07;3.43;;;1.57;;
12535;SDS011;6334;48.696;2.114;2023-12-20T02:05:38;6.80;;;2.00;;
12535;SDS011;6334;48.696;2.114;2023-12-20T02:08:08;4.53;;;1.77;;
12535;SDS011;6334;48.696;2.114;2023-12-20T02:10:39;5.50;;;2.10;;
12535;SDS011;6334;48.696;2.114;2023-12-20T02:13:10;9.13;;;2.67;;
12535;SDS011;6334;48.696;2.114;2023-12-20T02:15:40;5.40;;;2.87;;
12535;SDS011;6334;48.696;2.114;2023-12-20T02:18:11;4.47;;;2.43;;
12535;SDS011;6334;48.696;2.114;2023-12-20T02:20:41;4.23;;;2.40;;
12535;SDS011;6334;48.696;2.114;2023-12-20T02:23:11;6.80;;;2.17;;
12535;SDS011;6334;48.696;2.114;2023-12-20T02:25:41;4.53;;;2.20;;
12535;SDS011;6334;48.696;2.114;2023-12-20T02:28:12;6.93;;;2.47;;
12535;SDS011;6334;48.696;2.114;2023-12-20T02:30:42;4.73;;;2.30;;
12535;SDS011;6334;48.696;2.114;2023-12-20T02:33:12;3.93;;;2.10;;
12535;SDS011;6334;48.696;2.114;2023-12-20T02:35:42;5.03;;;1.97;;
12535;SDS011;6334;48.696;2.114;2023-12-20T02:38:13;6.10;;;2.20;;
12535;SDS011;6334;48.696;2.114;2023-12-20T02:40:43;7.47;;;2.50;;
12535;SDS011;6334;48.696;2.114;2023-12-20T02:43:13;7.03;;;2.67;;
12535;SDS011;6334;48.696;2.114;2023-12-20T02:45:43;4.57;;;1.90;;
12535;SDS011;6334;48.696;2.114;2023-12-20T02:48:14;5.57;;;2.00;;
12535;SDS011;6334;48.696;2.114;2023-12-20T02:50:45;4.70;;;1.97;;
12535;SDS011;6334;48.696;2.114;2023-12-20T02:53:14;3.13;;;1.87;;
12535;SDS011;6334;48.696;2.114;2023-12-20T02:55:45;3.93;;;1.70;;
12535;SDS011;6334;48.696;2.114;2023-12-20T02:58:15;3.47;;;1.80;;
12535;SDS011;6334;48.696;2.114;2023-12-20T03:00:46;3.80;;;1.77;;
12535;SDS011;6334;48.696;2.114;2023-12-20T03:03:15;6.10;;;2.20;;
12535;SDS011;6334;48.696;2.114;2023-12-20T03:05:46;4.00;;;1.60;;
12535;SDS011;6334;48.696;2.114;2023-12-20T03:08:16;7.73;;;2.73;;
12535;SDS011;6334;48.696;2.114;2023-12-20T03:10:47;8.77;;;3.23;;
12535;SDS011;6334;48.696;2.114;2023-12-20T03:13:17;8.33;;;3.63;;
12535;SDS011;6334;48.696;2.114;2023-12-20T03:15:48;9.53;;;3.30;;
12535;SDS011;6334;48.696;2.114;2023-12-20T03:18:18;7.40;;;3.20;;
12535;SDS011;6334;48.696;2.114;2023-12-20T03:20:49;6.43;;;2.63;;
12535;SDS011;6334;48.696;2.114;2023-12-20T03:23:19;5.90;;;2.50;;
12535;SDS011;6334;48.696;2.114;2023-12-20T03:25:49;6.63;;;2.60;;
12535;SDS011;6334;48.696;2.114;2023-12-20T03:28:21;7.50;;;2.97;;
12535;SDS011;6334;48.696;2.114;2023-12-20T03:30:51;9.97;;;3.20;;
12535;SDS011;6334;48.696;2.114;2023-12-20T03:33:21;4.07;;;2.70;;
12535;SDS011;6334;48.696;2.114;2023-12-20T03:35:51;9.93;;;3.13;;
12535;SDS011;6334;48.696;2.114;2023-12-20T03:38:22;6.63;;;3.33;;
12535;SDS011;6334;48.696;2.114;2023-12-20T03:40:52;5.33;;;2.70;;
12535;SDS011;6334;48.696;2.114;2023-12-20T03:43:24;7.97;;;2.90;;
12535;SDS011;6334;48.696;2.114;2023-12-20T03:45:56;8.33;;;2.60;;
12535;SDS011;6334;48.696;2.114;2023-12-20T03:48:26;7.97;;;2.43;;
12535;SDS011;6334;48.696;2.114;2023-12-20T03:50:57;4.10;;;1.77;;
12535;SDS011;6334;48.696;2.114;2023-12-20T03:53:27;4.80;;;2.73;;
12535;SDS011;6334;48.696;2.114;2023-12-20T03:55:57;5.93;;;2.30;;
12535;SDS011;6334;48.696;2.114;2023-12-20T03:58:27;5.03;;;2.30;;
12535;SDS011;6334;48.696;2.114;2023-12-20T04:00:58;9.03;;;2.67;;
12535;SDS011;6334;48.696;2.114;2023-12-20T04:03:28;3.13;;;1.77;;
12535;SDS011;6334;48.696;2.114;2023-12-20T04:05:58;6.33;;;1.97;;
12535;SDS011;6334;48.696;2.114;2023-12-20T04:08:29;7.90;;;2.27;;
12535;SDS011;6334;48.696;2.114;2023-12-20T04:11:00;6.57;;;2.30;;
12535;SDS011;6334;48.696;2.114;2023-12-20T04:13:30;7.70;;;2.30;;
12535;SDS011;6334;48.696;2.114;2023-12-20T04:16:02;6.93;;;2.50;;
12535;SDS011;6334;48.696;2.114;2023-12-20T04:18:33;3.47;;;1.93;;
12535;SDS011;6334;48.696;2.114;2023-12-20T04:21:04;5.27;;;2.33;;
12535;SDS011;6334;48.696;2.114;2023-12-20T04:23:35;6.57;;;2.37;;
12535;SDS011;6334;48.696;2.114;2023-12-20T04:26:06;4.63;;;2.00;;
12535;SDS011;6334;48.696;2.114;2023-12-20T04:28:36;5.33;;;2.37;;
12535;SDS011;6334;48.696;2.114;2023-12-20T04:31:07;6.20;;;2.30;;
12535;SDS011;6334;48.696;2.114;2023-12-20T04:33:38;7.73;;;2.83;;
12535;SDS011;6334;48.696;2.114;2023-12-20T04:36:09;6.57;;;2.30;;
12535;SDS011;6334;48.696;2.114;2023-12-20T04:38:39;7.43;;;3.07;;
12535;SDS011;6334;48.696;2.114;2023-12-20T04:41:10;10.73;;;3.30;;
12535;SDS011;6334;48.696;2.114;2023-12-20T04:43:40;7.97;;;3.47;;
12535;SDS011;6334;48.696;2.114;2023-12-20T04:46:10;7.40;;;3.30;;
12535;SDS011;6334;48.696;2.114;2023-12-20T04:48:40;6.17;;;3.30;;
12535;SDS011;6334;48.696;2.114;2023-12-20T04:51:11;7.43;;;2.90;;
12535;SDS011;6334;48.696;2.114;2023-12-20T04:53:41;6.63;;;3.03;;
12535;SDS011;6334;48.696;2.114;2023-12-20T04:56:11;5.70;;;2.10;;
12535;SDS011;6334;48.696;2.114;2023-12-20T04:58:42;6.87;;;2.37;;
12535;SDS011;6334;48.696;2.114;2023-12-20T05:01:12;6.73;;;2.53;;
12535;SDS011;6334;48.696;2.114;2023-12-20T05:03:42;4.53;;;1.90;;
12535;SDS011;6334;48.696;2.114;2023-12-20T05:06:12;5.53;;;2.67;;
12535;SDS011;6334;48.696;2.114;2023-12-20T05:08:43;8.00;;;2.50;;
12535;SDS011;6334;48.696;2.114;2023-12-20T05:11:13;7.67;;;2.17;;
12535;SDS011;6334;48.696;2.114;2023-12-20T05:13:43;6.57;;;2.23;;
12535;SDS011;6334;48.696;2.114;2023-12-20T05:16:13;8.20;;;2.93;;
12535;SDS011;6334;48.696;2.114;2023-12-20T05:18:47;7.47;;;3.33;;
12535;SDS011;6334;48.696;2.114;2023-12-20T05:21:17;7.17;;;3.17;;
12535;SDS011;6334;48.696;2.114;2023-12-20T05:23:47;6.93;;;3.57;;
12535;SDS011;6334;48.696;2.114;2023-12-20T05:26:18;9.83;;;3.67;;
12535;SDS011;6334;48.696;2.114;2023-12-20T05:28:48;6.60;;;2.73;;
12535;SDS011;6334;48.696;2.114;2023-12-20T05:31:18;4.93;;;2.63;;
12535;SDS011;6334;48.696;2.114;2023-12-20T05:33:49;7.13;;;3.70;;
12535;SDS011;6334;48.696;2.114;2023-12-20T05:36:19;8.60;;;4.10;;
12535;SDS011;6334;48.696;2.114;2023-12-20T05:38:49;12.87;;;4.70;;
12535;SDS011;6334;48.696;2.114;2023-12-20T05:41:20;8.80;;;3.57;;
12535;SDS011;6334;48.696;2.114;2023-12-20T05:43:51;12.07;;;4.13;;
12535;SDS011;6334;48.696;2.114;2023-12-20T05:46:21;8.23;;;3.53;;
12535;SDS011;6334;48.696;2.114;2023-12-20T05:48:52;8.50;;;3.00;;
12535;SDS011;6334;48.696;2.114;2023-12-20T05:51:22;9.00;;;3.17;;
12535;SDS011;6334;48.696;2.114;2023-12-20T05:53:53;6.07;;;3.10;;
12535;SDS011;6334;48.696;2.114;2023-12-20T05:56:22;9.27;;;4.03;;
12535;SDS011;6334;48.696;2.114;2023-12-20T05:58:53;10.93;;;4.03;;
12535;SDS011;6334;48.696;2.114;2023-12-20T06:01:23;9.30;;;3.97;;
12535;SDS011;6334;48.696;2.114;2023-12-20T06:03:53;8.80;;;3.70;;
12535;SDS011;6334;48.696;2.114;2023-12-20T06:06:24;9.23;;;3.17;;
12535;SDS011;6334;48.696;2.114;2023-12-20T06:08:54;11.13;;;4.57;;
12535;SDS011;6334;48.696;2.114;2023-12-20T06:11:24;11.53;;;3.87;;
12535;SDS011;6334;48.696;2.114;2023-12-20T06:13:54;9.90;;;4.07;;
12535;SDS011;6334;48.696;2.114;2023-12-20T06:16:24;9.53;;;4.53;;
12535;SDS011;6334;48.696;2.114;2023-12-20T06:18:55;11.17;;;4.50;;
12535;SDS011;6334;48.696;2.114;2023-12-20T06:21:25;9.33;;;4.00;;
12535;SDS011;6334;48.696;2.114;2023-12-20T06:23:56;10.23;;;3.80;;
12535;SDS011;6334;48.696;2.114;2023-12-20T06:26:26;9.33;;;3.70;;
12535;SDS011;6334;48.696;2.114;2023-12-20T06:28:58;7.50;;;3.17;;
12535;SDS011;6334;48.696;2.114;2023-12-20T06:31:28;8.33;;;3.67;;
12535;SDS011;6334;48.696;2.114;2023-12-20T06:33:59;6.37;;;3.87;;
12535;SDS011;6334;48.696;2.114;2023-12-20T06:36:30;6.37;;;3.43;;
12535;SDS011;6334;48.696;2.114;2023-12-20T06:39:00;10.20;;;3.90;;
12535;SDS011;6334;48.696;2.114;2023-12-20T06:41:31;8.40;;;3.67;;
12535;SDS011;6334;48.696;2.114;2023-12-20T06:44:00;7.37;;;3.50;;
12535;SDS011;6334;48.696;2.114;2023-12-20T06:46:31;9.40;;;3.43;;
12535;SDS011;6334;48.696;2.114;2023-12-20T06:49:00;6.63;;;3.30;;
12535;SDS011;6334;48.696;2.114;2023-12-20T06:51:30;8.27;;;3.90;;
12535;SDS011;6334;48.696;2.114;2023-12-20T06:54:01;6.90;;;2.90;;
12535;SDS011;6334;48.696;2.114;2023-12-20T06:56:31;8.30;;;3.40;;
12535;SDS011;6334;48.696;2.114;2023-12-20T06:59:01;7.27;;;3.27;;
12535;SDS011;6334;48.696;2.114;2023-12-20T07:01:31;8.37;;;3.00;;
12535;SDS011;6334;48.696;2.114;2023-12-20T07:04:01;7.57;;;3.13;;
12535;SDS011;6334;48.696;2.114;2023-12-20T07:06:38;10.71;;;3.44;;
12535;SDS011;6334;48.696;2.114;2023-12-20T07:09:08;8.83;;;3.10;;
12535;SDS011;6334;48.696;2.114;2023-12-20T07:11:38;6.67;;;2.63;;
12535;SDS011;6334;48.696;2.114;2023-12-20T07:14:08;4.43;;;2.83;;
12535;SDS011;6334;48.696;2.114;2023-12-20T07:16:38;9.07;;;3.23;;
12535;SDS011;6334;48.696;2.114;2023-12-20T07:19:08;4.67;;;2.47;;
12535;SDS011;6334;48.696;2.114;2023-12-20T07:21:39;6.30;;;2.63;;
12535;SDS011;6334;48.696;2.114;2023-12-20T07:24:09;8.50;;;2.77;;
12535;SDS011;6334;48.696;2.114;2023-12-20T07:26:40;7.37;;;3.03;;
12535;SDS011;6334;48.696;2.114;2023-12-20T07:29:10;8.60;;;3.00;;
12535;SDS011;6334;48.696;2.114;2023-12-20T07:31:41;7.80;;;3.30;;
12535;SDS011;6334;48.696;2.114;2023-12-20T07:34:12;4.13;;;2.40;;
12535;SDS011;6334;48.696;2.114;2023-12-20T07:36:42;9.87;;;3.00;;
12535;SDS011;6334;48.696;2.114;2023-12-20T07:39:13;8.80;;;3.47;;
12535;SDS011;6334;48.696;2.114;2023-12-20T07:41:46;7.60;;;2.67;;
12535;SDS011;6334;48.696;2.114;2023-12-20T07:44:16;7.73;;;2.50;;
12535;SDS011;6334;48.696;2.114;2023-12-20T07:46:47;5.93;;;2.40;;
12535;SDS011;6334;48.696;2.114;2023-12-20T07:49:17;11.07;;;3.30;;
12535;SDS011;6334;48.696;2.114;2023-12-20T07:51:47;7.07;;;2.73;;
12535;SDS011;6334;48.696;2.114;2023-12-20T07:54:18;2.77;;;2.03;;
12535;SDS011;6334;48.696;2.114;2023-12-20T07:56:48;11.13;;;3.23;;
12535;SDS011;6334;48.696;2.114;2023-12-20T07:59:19;7.30;;;2.80;;
12535;SDS011;6334;48.696;2.114;2023-12-20T08:01:49;8.40;;;2.90;;
12535;SDS011;6334;48.696;2.114;2023-12-20T08:04:20;6.67;;;3.43;;
12535;SDS011;6334;48.696;2.114;2023-12-20T08:06:50;9.67;;;4.00;;
12535;SDS011;6334;48.696;2.114;2023-12-20T08:09:21;11.47;;;4.07;;
12535;SDS011;6334;48.696;2.114;2023-12-20T08:11:51;7.27;;;3.57;;
12535;SDS011;6334;48.696;2.114;2023-12-20T08:14:22;7.90;;;3.53;;
12535;SDS011;6334;48.696;2.114;2023-12-20T08:16:52;7.57;;;2.70;;
12535;SDS011;6334;48.696;2.114;2023-12-20T08:19:23;9.00;;;3.00;;
12535;SDS011;6334;48.696;2.114;2023-12-20T08:21:53;6.47;;;3.13;;
12535;SDS011;6334;48.696;2.114;2023-12-20T08:24:24;9.57;;;3.13;;
12535;SDS011;6334;48.696;2.114;2023-12-20T08:26:54;7.33;;;3.03;;
12535;SDS011;6334;48.696;2.114;2023-12-20T08:29:25;10.37;;;3.50;;
12535;SDS011;6334;48.696;2.114;2023-12-20T08:31:55;5.53;;;2.50;;
12535;SDS011;6334;48.696;2.114;2023-12-20T08:34:25;9.23;;;3.10;;
12535;SDS011;6334;48.696;2.114;2023-12-20T08:36:56;7.73;;;2.70;;
12535;SDS011;6334;48.696;2.114;2023-12-20T08:39:26;8.90;;;2.97;;
12535;SDS011;6334;48.696;2.114;2023-12-20T08:41:57;11.80;;;3.67;;
12535;SDS011;6334;48.696;2.114;2023-12-20T08:44:27;8.73;;;3.03;;
12535;SDS011;6334;48.696;2.114;2023-12-20T08:46:58;6.30;;;3.07;;
12535;SDS011;6334;48.696;2.114;2023-12-20T08:49:28;14.27;;;6.17;;
12535;SDS011;6334;48.696;2.114;2023-12-20T08:51:59;8.50;;;4.17;;
12535;SDS011;6334;48.696;2.114;2023-12-20T08:54:29;14.50;;;4.20;;
12535;SDS011;6334;48.696;2.114;2023-12-20T08:57:00;5.53;;;2.93;;
12535;SDS011;6334;48.696;2.114;2023-12-20T08:59:30;11.27;;;5.10;;
12535;SDS011;6334;48.696;2.114;2023-12-20T09:02:00;7.73;;;4.47;;
12535;SDS011;6334;48.696;2.114;2023-12-20T09:04:31;11.33;;;3.67;;
12535;SDS011;6334;48.696;2.114;2023-12-20T09:07:02;6.23;;;3.43;;
12535;SDS011;6334;48.696;2.114;2023-12-20T09:09:32;8.33;;;3.67;;
12535;SDS011;6334;48.696;2.114;2023-12-20T09:12:03;7.20;;;3.63;;
12535;SDS011;6334;48.696;2.114;2023-12-20T09:14:33;9.63;;;3.97;;
12535;SDS011;6334;48.696;2.114;2023-12-20T09:17:03;6.53;;;3.20;;
12535;SDS011;6334;48.696;2.114;2023-12-20T09:19:35;13.20;;;5.63;;
12535;SDS011;6334;48.696;2.114;2023-12-20T09:22:06;17.77;;;9.60;;
12535;SDS011;6334;48.696;2.114;2023-12-20T09:24:36;17.03;;;10.00;;
12535;SDS011;6334;48.696;2.114;2023-12-20T09:27:08;12.20;;;5.83;;
12535;SDS011;6334;48.696;2.114;2023-12-20T09:29:38;13.50;;;7.10;;
12535;SDS011;6334;48.696;2.114;2023-12-20T09:32:09;9.97;;;4.43;;
12535;SDS011;6334;48.696;2.114;2023-12-20T09:34:39;8.53;;;3.47;;
12535;SDS011;6334;48.696;2.114;2023-12-20T09:37:09;6.60;;;3.20;;
12535;SDS011;6334;48.696;2.114;2023-12-20T09:39:40;4.53;;;2.87;;
12535;SDS011;6334;48.696;2.114;2023-12-20T09:42:11;9.83;;;3.30;;
12535;SDS011;6334;48.696;2.114;2023-12-20T09:44:41;6.70;;;2.93;;
12535;SDS011;6334;48.696;2.114;2023-12-20T09:47:11;7.83;;;3.27;;
12535;SDS011;6334;48.696;2.114;2023-12-20T09:49:42;8.40;;;3.23;;
12535;SDS011;6334;48.696;2.114;2023-12-20T09:52:12;8.73;;;3.50;;
12535;SDS011;6334;48.696;2.114;2023-12-20T09:54:43;11.37;;;4.50;;
12535;SDS011;6334;48.696;2.114;2023-12-20T09:57:13;8.00;;;4.10;;
12535;SDS011;6334;48.696;2.114;2023-12-20T09:59:44;9.50;;;4.40;;
12535;SDS011;6334;48.696;2.114;2023-12-20T10:02:14;6.50;;;3.73;;
12535;SDS011;6334;48.696;2.114;2023-12-20T10:04:48;9.97;;;4.00;;
12535;SDS011;6334;48.696;2.114;2023-12-20T10:07:15;5.87;;;3.17;;
12535;SDS011;6334;48.696;2.114;2023-12-20T10:09:46;7.83;;;3.50;;
12535;SDS011;6334;48.696;2.114;2023-12-20T10:12:16;12.53;;;4.80;;
12535;SDS011;6334;48.696;2.114;2023-12-20T10:14:47;9.17;;;3.70;;
12535;SDS011;6334;48.696;2.114;2023-12-20T10:17:17;8.40;;;3.37;;
12535;SDS011;6334;48.696;2.114;2023-12-20T10:19:47;7.70;;;2.90;;
12535;SDS011;6334;48.696;2.114;2023-12-20T10:22:18;9.20;;;2.93;;
12535;SDS011;6334;48.696;2.114;2023-12-20T10:24:48;6.43;;;2.57;;
12535;SDS011;6334;48.696;2.114;2023-12-20T10:27:19;6.00;;;2.93;;
12535;SDS011;6334;48.696;2.114;2023-12-20T10:29:49;10.60;;;2.93;;
12535;SDS011;6334;48.696;2.114;2023-12-20T10:34:53;11.23;;;2.90;;
12535;SDS011;6334;48.696;2.114;2023-12-20T10:37:23;6.27;;;2.73;;
12535;SDS011;6334;48.696;2.114;2023-12-20T10:39:54;11.97;;;3.07;;
12535;SDS011;6334;48.696;2.114;2023-12-20T10:42:24;7.50;;;2.47;;
12535;SDS011;6334;48.696;2.114;2023-12-20T10:44:54;10.07;;;3.20;;
12535;SDS011;6334;48.696;2.114;2023-12-20T10:47:27;6.70;;;2.80;;
12535;SDS011;6334;48.696;2.114;2023-12-20T10:49:58;8.17;;;2.77;;
12535;SDS011;6334;48.696;2.114;2023-12-20T10:52:29;8.87;;;2.40;;
12535;SDS011;6334;48.696;2.114;2023-12-20T10:55:00;9.23;;;2.43;;
12535;SDS011;6334;48.696;2.114;2023-12-20T10:57:30;9.30;;;2.50;;
12535;SDS011;6334;48.696;2.114;2023-12-20T11:00:01;7.17;;;2.93;;
12535;SDS011;6334;48.696;2.114;2023-12-20T11:02:32;9.93;;;3.00;;
12535;SDS011;6334;48.696;2.114;2023-12-20T11:08:03;11.67;;;2.90;;
12535;SDS011;6334;48.696;2.114;2023-12-20T11:10:35;7.37;;;2.70;;
12535;SDS011;6334;48.696;2.114;2023-12-20T11:13:06;9.87;;;2.80;;
12535;SDS011;6334;48.696;2.114;2023-12-20T11:15:33;9.07;;;3.10;;
12535;SDS011;6334;48.696;2.114;2023-12-20T11:18:03;10.43;;;3.57;;
12535;SDS011;6334;48.696;2.114;2023-12-20T11:20:37;7.70;;;2.33;;
12535;SDS011;6334;48.696;2.114;2023-12-20T11:23:07;7.57;;;2.60;;
12535;SDS011;6334;48.696;2.114;2023-12-20T11:25:49;7.23;;;3.30;;
12535;SDS011;6334;48.696;2.114;2023-12-20T11:28:22;9.70;;;3.13;;
12535;SDS011;6334;48.696;2.114;2023-12-20T11:30:52;9.20;;;3.00;;
12535;SDS011;6334;48.696;2.114;2023-12-20T11:33:37;8.40;;;2.90;;
12535;SDS011;6334;48.696;2.114;2023-12-20T11:36:17;10.43;;;3.33;;
12535;SDS011;6334;48.696;2.114;2023-12-20T11:39:03;8.13;;;2.87;;
12535;SDS011;6334;48.696;2.114;2023-12-20T11:41:26;12.87;;;3.27;;
12535;SDS011;6334;48.696;2.114;2023-12-20T11:43:57;8.67;;;2.80;;
12535;SDS011;6334;48.696;2.114;2023-12-20T11:46:27;8.17;;;2.83;;
12535;SDS011;6334;48.696;2.114;2023-12-20T11:48:58;9.20;;;3.27;;
12535;SDS011;6334;48.696;2.114;2023-12-20T11:51:28;9.60;;;3.30;;
12535;SDS011;6334;48.696;2.114;2023-12-20T11:53:59;10.50;;;3.40;;
12535;SDS011;6334;48.696;2.114;2023-12-20T11:56:29;9.50;;;2.97;;
12535;SDS011;6334;48.696;2.114;2023-12-20T11:59:01;8.70;;;2.93;;
12535;SDS011;6334;48.696;2.114;2023-12-20T12:01:31;8.00;;;3.03;;
12535;SDS011;6334;48.696;2.114;2023-12-20T12:04:02;6.03;;;3.00;;
12535;SDS011;6334;48.696;2.114;2023-12-20T12:06:35;13.23;;;3.30;;
12535;SDS011;6334;48.696;2.114;2023-12-20T12:09:05;9.27;;;3.30;;
12535;SDS011;6334;48.696;2.114;2023-12-20T12:11:36;11.10;;;3.17;;
12535;SDS011;6334;48.696;2.114;2023-12-20T12:14:07;12.67;;;3.23;;
12535;SDS011;6334;48.696;2.114;2023-12-20T12:16:37;8.23;;;3.10;;
12535;SDS011;6334;48.696;2.114;2023-12-20T12:19:07;10.65;;;3.60;;
12535;SDS011;6334;48.696;2.114;2023-12-20T12:21:37;7.67;;;2.77;;
12535;SDS011;6334;48.696;2.114;2023-12-20T12:24:08;9.80;;;3.73;;
12535;SDS011;6334;48.696;2.114;2023-12-20T12:26:38;8.70;;;3.07;;
12535;SDS011;6334;48.696;2.114;2023-12-20T12:29:09;7.97;;;2.50;;
12535;SDS011;6334;48.696;2.114;2023-12-20T12:31:39;8.67;;;3.00;;
12535;SDS011;6334;48.696;2.114;2023-12-20T12:34:10;10.43;;;3.97;;
12535;SDS011;6334;48.696;2.114;2023-12-20T12:36:40;7.23;;;2.50;;
12535;SDS011;6334;48.696;2.114;2023-12-20T12:39:14;7.10;;;3.13;;
12535;SDS011;6334;48.696;2.114;2023-12-20T12:41:45;11.10;;;3.30;;
12535;SDS011;6334;48.696;2.114;2023-12-20T12:44:15;11.07;;;3.67;;
12535;SDS011;6334;48.696;2.114;2023-12-20T12:46:46;11.50;;;3.03;;
12535;SDS011;6334;48.696;2.114;2023-12-20T12:49:19;8.67;;;3.00;;
12535;SDS011;6334;48.696;2.114;2023-12-20T12:51:49;10.63;;;3.43;;
12535;SDS011;6334;48.696;2.114;2023-12-20T12:54:20;11.90;;;2.87;;
12535;SDS011;6334;48.696;2.114;2023-12-20T12:56:50;8.63;;;2.90;;
12535;SDS011;6334;48.696;2.114;2023-12-20T12:59:21;7.37;;;3.20;;
12535;SDS011;6334;48.696;2.114;2023-12-20T13:01:51;15.30;;;4.57;;
12535;SDS011;6334;48.696;2.114;2023-12-20T13:04:22;13.20;;;6.07;;
12535;SDS011;6334;48.696;2.114;2023-12-20T13:06:52;12.20;;;5.00;;
12535;SDS011;6334;48.696;2.114;2023-12-20T13:09:23;10.00;;;4.20;;
12535;SDS011;6334;48.696;2.114;2023-12-20T13:11:53;9.53;;;3.90;;
12535;SDS011;6334;48.696;2.114;2023-12-20T13:14:23;11.13;;;3.70;;
12535;SDS011;6334;48.696;2.114;2023-12-20T13:16:54;8.20;;;3.70;;
12535;SDS011;6334;48.696;2.114;2023-12-20T13:19:24;12.93;;;3.27;;
12535;SDS011;6334;48.696;2.114;2023-12-20T13:21:55;13.27;;;3.43;;
12535;SDS011;6334;48.696;2.114;2023-12-20T13:24:26;10.10;;;2.97;;
12535;SDS011;6334;48.696;2.114;2023-12-20T13:26:56;10.00;;;3.20;;
12535;SDS011;6334;48.696;2.114;2023-12-20T13:29:26;9.80;;;3.60;;
12535;SDS011;6334;48.696;2.114;2023-12-20T13:31:57;11.27;;;4.20;;
12535;SDS011;6334;48.696;2.114;2023-12-20T13:34:27;10.07;;;4.90;;
12535;SDS011;6334;48.696;2.114;2023-12-20T13:36:58;10.40;;;4.10;;
12535;SDS011;6334;48.696;2.114;2023-12-20T13:39:28;7.37;;;4.27;;
12535;SDS011;6334;48.696;2.114;2023-12-20T13:41:59;10.60;;;4.60;;
12535;SDS011;6334;48.696;2.114;2023-12-20T13:44:29;8.87;;;3.70;;
12535;SDS011;6334;48.696;2.114;2023-12-20T13:47:00;11.57;;;4.20;;
12535;SDS011;6334;48.696;2.114;2023-12-20T13:49:30;9.17;;;3.63;;
12535;SDS011;6334;48.696;2.114;2023-12-20T13:52:01;10.27;;;4.03;;
12535;SDS011;6334;48.696;2.114;2023-12-20T13:54:31;7.33;;;3.33;;
12535;SDS011;6334;48.696;2.114;2023-12-20T13:57:01;8.23;;;3.50;;
12535;SDS011;6334;48.696;2.114;2023-12-20T13:59:32;7.40;;;3.10;;
12535;SDS011;6334;48.696;2.114;2023-12-20T14:02:02;10.77;;;3.37;;
12535;SDS011;6334;48.696;2.114;2023-12-20T14:04:33;9.97;;;3.00;;
12535;SDS011;6334;48.696;2.114;2023-12-20T14:07:03;10.47;;;3.70;;
12535;SDS011;6334;48.696;2.114;2023-12-20T14:09:34;11.37;;;2.83;;
12535;SDS011;6334;48.696;2.114;2023-12-20T14:12:04;5.17;;;2.33;;
12535;SDS011;6334;48.696;2.114;2023-12-20T14:14:35;8.17;;;3.23;;
12535;SDS011;6334;48.696;2.114;2023-12-20T14:17:05;9.43;;;3.30;;
12535;SDS011;6334;48.696;2.114;2023-12-20T14:19:35;8.88;;;3.34;;
12535;SDS011;6334;48.696;2.114;2023-12-20T14:22:06;6.67;;;2.87;;
12535;SDS011;6334;48.696;2.114;2023-12-20T14:24:36;4.73;;;2.27;;
12535;SDS011;6334;48.696;2.114;2023-12-20T14:27:07;7.57;;;2.97;;
12535;SDS011;6334;48.696;2.114;2023-12-20T14:29:37;7.50;;;2.40;;
12535;SDS011;6334;48.696;2.114;2023-12-20T14:32:07;8.37;;;2.47;;
12535;SDS011;6334;48.696;2.114;2023-12-20T14:34:38;5.47;;;3.07;;
12535;SDS011;6334;48.696;2.114;2023-12-20T14:37:08;9.03;;;3.40;;
12535;SDS011;6334;48.696;2.114;2023-12-20T14:39:40;7.50;;;3.23;;
12535;SDS011;6334;48.696;2.114;2023-12-20T14:42:11;5.33;;;2.17;;
12535;SDS011;6334;48.696;2.114;2023-12-20T14:44:42;4.53;;;2.27;;
12535;SDS011;6334;48.696;2.114;2023-12-20T14:47:12;4.53;;;2.00;;
12535;SDS011;6334;48.696;2.114;2023-12-20T14:49:42;8.20;;;2.70;;
12535;SDS011;6334;48.696;2.114;2023-12-20T14:52:13;7.77;;;2.23;;
12535;SDS011;6334;48.696;2.114;2023-12-20T14:54:43;4.20;;;2.23;;
12535;SDS011;6334;48.696;2.114;2023-12-20T14:57:14;5.53;;;2.27;;
12535;SDS011;6334;48.696;2.114;2023-12-20T14:59:44;6.57;;;2.13;;
12535;SDS011;6334;48.696;2.114;2023-12-20T15:02:15;3.80;;;2.33;;
12535;SDS011;6334;48.696;2.114;2023-12-20T15:04:45;4.03;;;2.40;;
12535;SDS011;6334;48.696;2.114;2023-12-20T15:07:16;5.77;;;2.63;;
12535;SDS011;6334;48.696;2.114;2023-12-20T15:09:46;5.87;;;2.30;;
12535;SDS011;6334;48.696;2.114;2023-12-20T15:12:17;4.63;;;2.13;;
12535;SDS011;6334;48.696;2.114;2023-12-20T15:14:47;6.83;;;2.37;;
12535;SDS011;6334;48.696;2.114;2023-12-20T15:17:18;4.20;;;2.30;;
12535;SDS011;6334;48.696;2.114;2023-12-20T15:19:48;3.95;;;2.00;;
12535;SDS011;6334;48.696;2.114;2023-12-20T15:22:18;4.77;;;2.40;;